sensor_id;sensor_type;location;lat;lon;timestamp;temperature;humidity
75190;HTU21D;69198;44.694;37.790;2023-09-07T00:00:51;22.70;54.42
75190;HTU21D;69198;44.694;37.790;2023-09-07T00:01:51;22.73;54.33
75190;HTU21D;69198;44.694;37.790;2023-09-07T00:02:53;22.75;54.36
75190;HTU21D;69198;44.694;37.790;2023-09-07T00:03:55;22.72;54.42
75190;HTU21D;69198;44.694;37.790;2023-09-07T00:04:56;22.70;54.35
75190;HTU21D;69198;44.694;37.790;2023-09-07T00:05:56;22.69;54.31
75190;HTU21D;69198;44.694;37.790;2023-09-07T00:06:57;22.66;54.33
75190;HTU21D;69198;44.694;37.790;2023-09-07T00:07:59;22.65;54.31
75190;HTU21D;69198;44.694;37.790;2023-09-07T00:09:02;22.69;54.02
75190;HTU21D;69198;44.694;37.790;2023-09-07T00:10:03;22.70;53.91
75190;HTU21D;69198;44.694;37.790;2023-09-07T00:11:07;22.76;53.81
75190;HTU21D;69198;44.694;37.790;2023-09-07T00:12:08;22.78;53.78
75190;HTU21D;69198;44.694;37.790;2023-09-07T00:13:09;22.77;53.81
75190;HTU21D;69198;44.694;37.790;2023-09-07T00:14:10;22.79;53.81
75190;HTU21D;69198;44.694;37.790;2023-09-07T00:15:11;22.81;53.82
75190;HTU21D;69198;44.694;37.790;2023-09-07T00:16:12;22.80;53.88
75190;HTU21D;69198;44.694;37.790;2023-09-07T00:17:13;22.77;53.84
75190;HTU21D;69198;44.694;37.790;2023-09-07T00:18:14;22.78;53.80
75190;HTU21D;69198;44.694;37.790;2023-09-07T00:19:15;22.77;53.78
75190;HTU21D;69198;44.694;37.790;2023-09-07T00:20:16;22.73;53.76
75190;HTU21D;69198;44.694;37.790;2023-09-07T00:21:17;22.73;53.68
75190;HTU21D;69198;44.694;37.790;2023-09-07T00:22:18;22.73;53.65
75190;HTU21D;69198;44.694;37.790;2023-09-07T00:23:21;22.73;53.70
75190;HTU21D;69198;44.694;37.790;2023-09-07T00:24:22;22.72;53.77
75190;HTU21D;69198;44.694;37.790;2023-09-07T00:25:24;22.71;53.90
75190;HTU21D;69198;44.694;37.790;2023-09-07T00:26:24;22.69;53.94
75190;HTU21D;69198;44.694;37.790;2023-09-07T00:27:25;22.69;53.88
75190;HTU21D;69198;44.694;37.790;2023-09-07T00:28:26;22.69;53.82
75190;HTU21D;69198;44.694;37.790;2023-09-07T00:29:28;22.69;53.84
75190;HTU21D;69198;44.694;37.790;2023-09-07T00:30:29;22.69;53.79
75190;HTU21D;69198;44.694;37.790;2023-09-07T00:31:30;22.71;53.56
75190;HTU21D;69198;44.694;37.790;2023-09-07T00:32:32;22.72;53.61
75190;HTU21D;69198;44.694;37.790;2023-09-07T00:33:34;22.72;53.76
75190;HTU21D;69198;44.694;37.790;2023-09-07T00:34:35;22.71;53.84
75190;HTU21D;69198;44.694;37.790;2023-09-07T00:35:37;22.68;53.84
75190;HTU21D;69198;44.694;37.790;2023-09-07T00:36:38;22.68;53.81
75190;HTU21D;69198;44.694;37.790;2023-09-07T00:37:39;22.69;53.75
75190;HTU21D;69198;44.694;37.790;2023-09-07T00:38:40;22.69;53.81
75190;HTU21D;69198;44.694;37.790;2023-09-07T00:39:42;22.69;53.82
75190;HTU21D;69198;44.694;37.790;2023-09-07T00:40:43;22.69;53.90
75190;HTU21D;69198;44.694;37.790;2023-09-07T00:41:45;22.67;53.91
75190;HTU21D;69198;44.694;37.790;2023-09-07T00:42:46;22.64;54.07
75190;HTU21D;69198;44.694;37.790;2023-09-07T00:43:47;22.62;54.19
75190;HTU21D;69198;44.694;37.790;2023-09-07T00:44:48;22.61;54.23
75190;HTU21D;69198;44.694;37.790;2023-09-07T00:45:49;22.58;54.37
75190;HTU21D;69198;44.694;37.790;2023-09-07T00:46:51;22.60;54.10
75190;HTU21D;69198;44.694;37.790;2023-09-07T00:47:53;22.61;53.84
75190;HTU21D;69198;44.694;37.790;2023-09-07T00:48:55;22.62;53.81
75190;HTU21D;69198;44.694;37.790;2023-09-07T00:49:57;22.62;53.91
75190;HTU21D;69198;44.694;37.790;2023-09-07T00:50:59;22.60;54.01
75190;HTU21D;69198;44.694;37.790;2023-09-07T00:52:01;22.57;53.97
75190;HTU21D;69198;44.694;37.790;2023-09-07T00:53:02;22.57;54.02
75190;HTU21D;69198;44.694;37.790;2023-09-07T00:54:04;22.57;53.93
75190;HTU21D;69198;44.694;37.790;2023-09-07T00:55:05;22.61;53.87
75190;HTU21D;69198;44.694;37.790;2023-09-07T00:56:07;22.63;53.75
75190;HTU21D;69198;44.694;37.790;2023-09-07T00:57:09;22.62;53.56
75190;HTU21D;69198;44.694;37.790;2023-09-07T00:58:10;22.63;53.55
75190;HTU21D;69198;44.694;37.790;2023-09-07T00:59:13;22.66;53.49
75190;HTU21D;69198;44.694;37.790;2023-09-07T01:00:14;22.66;53.45
75190;HTU21D;69198;44.694;37.790;2023-09-07T01:01:15;22.65;53.52
75190;HTU21D;69198;44.694;37.790;2023-09-07T01:02:16;22.64;53.59
75190;HTU21D;69198;44.694;37.790;2023-09-07T01:03:17;22.61;53.67
75190;HTU21D;69198;44.694;37.790;2023-09-07T01:04:18;22.57;53.82
75190;HTU21D;69198;44.694;37.790;2023-09-07T01:05:22;22.55;53.91
75190;HTU21D;69198;44.694;37.790;2023-09-07T01:06:37;22.54;53.91
75190;HTU21D;69198;44.694;37.790;2023-09-07T01:07:46;22.49;54.07
75190;HTU21D;69198;44.694;37.790;2023-09-07T01:08:51;22.47;54.07
75190;HTU21D;69198;44.694;37.790;2023-09-07T01:09:56;22.49;54.07
75190;HTU21D;69198;44.694;37.790;2023-09-07T01:10:58;22.51;54.13
75190;HTU21D;69198;44.694;37.790;2023-09-07T01:11:59;22.48;54.26
75190;HTU21D;69198;44.694;37.790;2023-09-07T01:13:00;22.44;54.37
75190;HTU21D;69198;44.694;37.790;2023-09-07T01:14:01;22.42;54.33
75190;HTU21D;69198;44.694;37.790;2023-09-07T01:15:05;22.46;53.87
75190;HTU21D;69198;44.694;37.790;2023-09-07T01:16:07;22.52;53.73
75190;HTU21D;69198;44.694;37.790;2023-09-07T01:17:08;22.53;53.84
75190;HTU21D;69198;44.694;37.790;2023-09-07T01:18:10;22.51;53.97
75190;HTU21D;69198;44.694;37.790;2023-09-07T01:19:11;22.46;54.14
75190;HTU21D;69198;44.694;37.790;2023-09-07T01:20:13;22.41;54.26
75190;HTU21D;69198;44.694;37.790;2023-09-07T01:21:18;22.37;54.19
75190;HTU21D;69198;44.694;37.790;2023-09-07T01:22:20;22.40;54.12
75190;HTU21D;69198;44.694;37.790;2023-09-07T01:23:25;22.42;53.88
75190;HTU21D;69198;44.694;37.790;2023-09-07T01:24:28;22.47;53.78
75190;HTU21D;69198;44.694;37.790;2023-09-07T01:25:31;22.48;53.69
75190;HTU21D;69198;44.694;37.790;2023-09-07T01:26:34;22.47;53.68
75190;HTU21D;69198;44.694;37.790;2023-09-07T01:27:35;22.44;53.68
75190;HTU21D;69198;44.694;37.790;2023-09-07T01:28:37;22.43;53.73
75190;HTU21D;69198;44.694;37.790;2023-09-07T01:29:39;22.40;53.75
75190;HTU21D;69198;44.694;37.790;2023-09-07T01:30:40;22.38;53.78
75190;HTU21D;69198;44.694;37.790;2023-09-07T01:31:42;22.39;53.82
75190;HTU21D;69198;44.694;37.790;2023-09-07T01:32:44;22.44;53.46
75190;HTU21D;69198;44.694;37.790;2023-09-07T01:33:45;22.52;53.05
75190;HTU21D;69198;44.694;37.790;2023-09-07T01:34:46;22.61;52.82
75190;HTU21D;69198;44.694;37.790;2023-09-07T01:35:47;22.70;52.69
75190;HTU21D;69198;44.694;37.790;2023-09-07T01:36:48;22.72;52.88
75190;HTU21D;69198;44.694;37.790;2023-09-07T01:37:49;22.71;53.02
75190;HTU21D;69198;44.694;37.790;2023-09-07T01:38:50;22.65;53.08
75190;HTU21D;69198;44.694;37.790;2023-09-07T01:39:51;22.64;52.92
75190;HTU21D;69198;44.694;37.790;2023-09-07T01:40:52;22.64;52.98
75190;HTU21D;69198;44.694;37.790;2023-09-07T01:41:53;22.64;53.06
75190;HTU21D;69198;44.694;37.790;2023-09-07T01:42:54;22.60;53.36
75190;HTU21D;69198;44.694;37.790;2023-09-07T01:43:55;22.57;53.27
75190;HTU21D;69198;44.694;37.790;2023-09-07T01:44:56;22.52;53.38
75190;HTU21D;69198;44.694;37.790;2023-09-07T01:45:57;22.48;53.56
75190;HTU21D;69198;44.694;37.790;2023-09-07T01:46:59;22.42;53.74
75190;HTU21D;69198;44.694;37.790;2023-09-07T01:48:02;22.38;53.88
75190;HTU21D;69198;44.694;37.790;2023-09-07T01:49:06;22.33;53.98
75190;HTU21D;69198;44.694;37.790;2023-09-07T01:50:08;22.27;53.97
75190;HTU21D;69198;44.694;37.790;2023-09-07T01:51:09;22.27;53.97
75190;HTU21D;69198;44.694;37.790;2023-09-07T01:52:10;22.25;54.06
75190;HTU21D;69198;44.694;37.790;2023-09-07T01:53:11;22.22;54.18
75190;HTU21D;69198;44.694;37.790;2023-09-07T01:54:12;22.21;54.22
75190;HTU21D;69198;44.694;37.790;2023-09-07T01:55:13;22.20;54.19
75190;HTU21D;69198;44.694;37.790;2023-09-07T01:56:18;22.21;54.18
75190;HTU21D;69198;44.694;37.790;2023-09-07T01:57:19;22.20;54.20
75190;HTU21D;69198;44.694;37.790;2023-09-07T01:58:20;22.19;54.32
75190;HTU21D;69198;44.694;37.790;2023-09-07T01:59:21;22.14;54.43
75190;HTU21D;69198;44.694;37.790;2023-09-07T02:00:22;22.12;54.55
75190;HTU21D;69198;44.694;37.790;2023-09-07T02:01:25;22.09;54.62
75190;HTU21D;69198;44.694;37.790;2023-09-07T02:02:27;22.09;54.62
75190;HTU21D;69198;44.694;37.790;2023-09-07T02:03:27;22.07;54.63
75190;HTU21D;69198;44.694;37.790;2023-09-07T02:04:28;22.06;54.60
75190;HTU21D;69198;44.694;37.790;2023-09-07T02:05:29;22.06;54.63
75190;HTU21D;69198;44.694;37.790;2023-09-07T02:06:31;22.03;54.76
75190;HTU21D;69198;44.694;37.790;2023-09-07T02:07:31;21.99;54.86
75190;HTU21D;69198;44.694;37.790;2023-09-07T02:08:32;21.97;54.88
75190;HTU21D;69198;44.694;37.790;2023-09-07T02:09:33;21.94;55.00
75190;HTU21D;69198;44.694;37.790;2023-09-07T02:10:34;21.92;55.15
75190;HTU21D;69198;44.694;37.790;2023-09-07T02:11:35;21.91;55.29
75190;HTU21D;69198;44.694;37.790;2023-09-07T02:12:36;21.87;55.44
75190;HTU21D;69198;44.694;37.790;2023-09-07T02:13:37;21.84;55.45
75190;HTU21D;69198;44.694;37.790;2023-09-07T02:14:39;21.85;55.35
75190;HTU21D;69198;44.694;37.790;2023-09-07T02:15:41;21.87;55.34
75190;HTU21D;69198;44.694;37.790;2023-09-07T02:16:42;21.87;55.42
75190;HTU21D;69198;44.694;37.790;2023-09-07T02:17:44;21.85;55.45
75190;HTU21D;69198;44.694;37.790;2023-09-07T02:18:49;21.82;55.51
75190;HTU21D;69198;44.694;37.790;2023-09-07T02:19:51;21.80;55.55
75190;HTU21D;69198;44.694;37.790;2023-09-07T02:20:52;21.79;55.58
75190;HTU21D;69198;44.694;37.790;2023-09-07T02:21:52;21.77;55.59
75190;HTU21D;69198;44.694;37.790;2023-09-07T02:22:54;21.80;55.49
75190;HTU21D;69198;44.694;37.790;2023-09-07T02:23:56;21.81;55.42
75190;HTU21D;69198;44.694;37.790;2023-09-07T02:24:57;21.83;55.40
75190;HTU21D;69198;44.694;37.790;2023-09-07T02:25:59;21.82;55.49
75190;HTU21D;69198;44.694;37.790;2023-09-07T02:27:00;21.83;55.39
75190;HTU21D;69198;44.694;37.790;2023-09-07T02:28:01;21.82;55.40
75190;HTU21D;69198;44.694;37.790;2023-09-07T02:29:02;21.81;55.50
75190;HTU21D;69198;44.694;37.790;2023-09-07T02:30:08;21.81;55.68
75190;HTU21D;69198;44.694;37.790;2023-09-07T02:31:09;21.77;55.83
75190;HTU21D;69198;44.694;37.790;2023-09-07T02:32:10;21.74;55.93
75190;HTU21D;69198;44.694;37.790;2023-09-07T02:33:11;21.70;55.97
75190;HTU21D;69198;44.694;37.790;2023-09-07T02:34:12;21.69;56.00
75190;HTU21D;69198;44.694;37.790;2023-09-07T02:35:13;21.72;55.94
75190;HTU21D;69198;44.694;37.790;2023-09-07T02:36:15;21.73;56.05
75190;HTU21D;69198;44.694;37.790;2023-09-07T02:37:16;21.69;56.15
75190;HTU21D;69198;44.694;37.790;2023-09-07T02:38:16;21.67;56.23
75190;HTU21D;69198;44.694;37.790;2023-09-07T02:39:18;21.64;56.34
75190;HTU21D;69198;44.694;37.790;2023-09-07T02:40:19;21.62;56.39
75190;HTU21D;69198;44.694;37.790;2023-09-07T02:41:20;21.61;56.39
75190;HTU21D;69198;44.694;37.790;2023-09-07T02:42:22;21.60;56.41
75190;HTU21D;69198;44.694;37.790;2023-09-07T02:43:25;21.59;56.26
75190;HTU21D;69198;44.694;37.790;2023-09-07T02:44:26;21.62;56.19
75190;HTU21D;69198;44.694;37.790;2023-09-07T02:45:27;21.63;56.20
75190;HTU21D;69198;44.694;37.790;2023-09-07T02:46:28;21.66;56.32
75190;HTU21D;69198;44.694;37.790;2023-09-07T02:47:29;21.65;56.29
75190;HTU21D;69198;44.694;37.790;2023-09-07T02:48:30;21.63;56.28
75190;HTU21D;69198;44.694;37.790;2023-09-07T02:49:31;21.64;56.36
75190;HTU21D;69198;44.694;37.790;2023-09-07T02:50:33;21.63;56.55
75190;HTU21D;69198;44.694;37.790;2023-09-07T02:51:35;21.61;56.58
75190;HTU21D;69198;44.694;37.790;2023-09-07T02:52:36;21.58;56.64
75190;HTU21D;69198;44.694;37.790;2023-09-07T02:53:37;21.55;56.59
75190;HTU21D;69198;44.694;37.790;2023-09-07T02:54:38;21.54;56.59
75190;HTU21D;69198;44.694;37.790;2023-09-07T02:55:39;21.53;56.62
75190;HTU21D;69198;44.694;37.790;2023-09-07T02:56:40;21.52;56.56
75190;HTU21D;69198;44.694;37.790;2023-09-07T02:57:42;21.53;56.55
75190;HTU21D;69198;44.694;37.790;2023-09-07T02:58:43;21.53;56.52
75190;HTU21D;69198;44.694;37.790;2023-09-07T02:59:44;21.52;56.42
75190;HTU21D;69198;44.694;37.790;2023-09-07T03:00:45;21.54;56.36
75190;HTU21D;69198;44.694;37.790;2023-09-07T03:01:50;21.62;56.08
75190;HTU21D;69198;44.694;37.790;2023-09-07T03:02:51;21.68;56.00
75190;HTU21D;69198;44.694;37.790;2023-09-07T03:03:53;21.70;55.86
75190;HTU21D;69198;44.694;37.790;2023-09-07T03:04:54;21.72;55.87
75190;HTU21D;69198;44.694;37.790;2023-09-07T03:06:11;21.70;55.99
75190;HTU21D;69198;44.694;37.790;2023-09-07T03:07:13;21.67;56.12
75190;HTU21D;69198;44.694;37.790;2023-09-07T03:08:14;21.64;56.24
75190;HTU21D;69198;44.694;37.790;2023-09-07T03:09:15;21.62;56.22
75190;HTU21D;69198;44.694;37.790;2023-09-07T03:10:16;21.63;56.19
75190;HTU21D;69198;44.694;37.790;2023-09-07T03:11:18;21.65;56.09
75190;HTU21D;69198;44.694;37.790;2023-09-07T03:12:19;21.66;56.07
75190;HTU21D;69198;44.694;37.790;2023-09-07T03:13:21;21.69;56.00
75190;HTU21D;69198;44.694;37.790;2023-09-07T03:14:22;21.70;55.97
75190;HTU21D;69198;44.694;37.790;2023-09-07T03:15:23;21.70;55.94
75190;HTU21D;69198;44.694;37.790;2023-09-07T03:16:24;21.72;55.94
75190;HTU21D;69198;44.694;37.790;2023-09-07T03:17:25;21.70;55.90
75190;HTU21D;69198;44.694;37.790;2023-09-07T03:18:26;21.73;55.80
75190;HTU21D;69198;44.694;37.790;2023-09-07T03:19:27;21.76;55.71
75190;HTU21D;69198;44.694;37.790;2023-09-07T03:20:28;21.80;55.62
75190;HTU21D;69198;44.694;37.790;2023-09-07T03:21:30;21.87;55.52
75190;HTU21D;69198;44.694;37.790;2023-09-07T03:22:31;21.99;55.34
75190;HTU21D;69198;44.694;37.790;2023-09-07T03:23:33;22.20;54.85
75190;HTU21D;69198;44.694;37.790;2023-09-07T03:24:35;22.46;54.27
75190;HTU21D;69198;44.694;37.790;2023-09-07T03:25:36;22.72;53.58
75190;HTU21D;69198;44.694;37.790;2023-09-07T03:26:37;23.02;52.53
75190;HTU21D;69198;44.694;37.790;2023-09-07T03:27:38;23.37;51.84
75190;HTU21D;69198;44.694;37.790;2023-09-07T03:28:41;23.65;51.40
75190;HTU21D;69198;44.694;37.790;2023-09-07T03:29:44;23.82;50.99
75190;HTU21D;69198;44.694;37.790;2023-09-07T03:30:45;23.99;50.73
75190;HTU21D;69198;44.694;37.790;2023-09-07T03:31:46;24.12;50.41
75190;HTU21D;69198;44.694;37.790;2023-09-07T03:32:48;24.21;50.22
75190;HTU21D;69198;44.694;37.790;2023-09-07T03:33:49;24.36;49.94
75190;HTU21D;69198;44.694;37.790;2023-09-07T03:34:50;24.50;49.65
75190;HTU21D;69198;44.694;37.790;2023-09-07T03:35:51;24.61;49.37
75190;HTU21D;69198;44.694;37.790;2023-09-07T03:36:53;24.72;49.11
75190;HTU21D;69198;44.694;37.790;2023-09-07T03:37:54;24.87;48.67
75190;HTU21D;69198;44.694;37.790;2023-09-07T03:38:55;25.06;48.34
75190;HTU21D;69198;44.694;37.790;2023-09-07T03:39:57;25.27;47.85
75190;HTU21D;69198;44.694;37.790;2023-09-07T03:40:58;25.47;47.47
75190;HTU21D;69198;44.694;37.790;2023-09-07T03:41:59;25.66;46.99
75190;HTU21D;69198;44.694;37.790;2023-09-07T03:43:00;25.82;46.50
75190;HTU21D;69198;44.694;37.790;2023-09-07T03:44:02;26.08;46.09
75190;HTU21D;69198;44.694;37.790;2023-09-07T03:45:04;26.36;45.47
75190;HTU21D;69198;44.694;37.790;2023-09-07T03:46:07;26.56;45.03
75190;HTU21D;69198;44.694;37.790;2023-09-07T03:47:09;26.71;44.52
75190;HTU21D;69198;44.694;37.790;2023-09-07T03:48:11;26.78;43.88
75190;HTU21D;69198;44.694;37.790;2023-09-07T03:49:13;26.82;43.70
75190;HTU21D;69198;44.694;37.790;2023-09-07T03:50:14;27.11;43.47
75190;HTU21D;69198;44.694;37.790;2023-09-07T03:51:15;27.41;42.77
75190;HTU21D;69198;44.694;37.790;2023-09-07T03:52:16;27.54;42.39
75190;HTU21D;69198;44.694;37.790;2023-09-07T03:53:17;27.57;42.13
75190;HTU21D;69198;44.694;37.790;2023-09-07T03:54:19;27.57;42.10
75190;HTU21D;69198;44.694;37.790;2023-09-07T03:55:20;27.57;42.07
75190;HTU21D;69198;44.694;37.790;2023-09-07T03:56:21;27.59;42.06
75190;HTU21D;69198;44.694;37.790;2023-09-07T03:57:23;27.67;41.90
75190;HTU21D;69198;44.694;37.790;2023-09-07T03:58:24;27.72;41.74
75190;HTU21D;69198;44.694;37.790;2023-09-07T03:59:27;27.83;41.52
75190;HTU21D;69198;44.694;37.790;2023-09-07T04:00:28;27.89;41.20
75190;HTU21D;69198;44.694;37.790;2023-09-07T04:01:29;28.04;41.07
75190;HTU21D;69198;44.694;37.790;2023-09-07T04:02:31;28.23;40.88
75190;HTU21D;69198;44.694;37.790;2023-09-07T04:03:32;28.47;40.42
75190;HTU21D;69198;44.694;37.790;2023-09-07T04:04:33;28.60;40.08
75190;HTU21D;69198;44.694;37.790;2023-09-07T04:05:38;28.65;39.71
75190;HTU21D;69198;44.694;37.790;2023-09-07T04:06:40;28.70;39.57
75190;HTU21D;69198;44.694;37.790;2023-09-07T04:07:41;28.73;39.51
75190;HTU21D;69198;44.694;37.790;2023-09-07T04:08:43;28.76;39.27
75190;HTU21D;69198;44.694;37.790;2023-09-07T04:09:45;28.83;39.17
75190;HTU21D;69198;44.694;37.790;2023-09-07T04:10:46;29.04;38.87
75190;HTU21D;69198;44.694;37.790;2023-09-07T04:11:47;29.26;38.49
75190;HTU21D;69198;44.694;37.790;2023-09-07T04:12:48;29.44;38.06
75190;HTU21D;69198;44.694;37.790;2023-09-07T04:13:49;29.53;37.82
75190;HTU21D;69198;44.694;37.790;2023-09-07T04:14:51;29.63;37.40
75190;HTU21D;69198;44.694;37.790;2023-09-07T04:15:53;29.66;37.26
75190;HTU21D;69198;44.694;37.790;2023-09-07T04:16:54;29.73;37.08
75190;HTU21D;69198;44.694;37.790;2023-09-07T04:17:55;29.83;36.84
75190;HTU21D;69198;44.694;37.790;2023-09-07T04:18:56;29.98;36.65
75190;HTU21D;69198;44.694;37.790;2023-09-07T04:19:58;30.12;36.24
75190;HTU21D;69198;44.694;37.790;2023-09-07T04:21:07;30.18;35.80
75190;HTU21D;69198;44.694;37.790;2023-09-07T04:22:13;30.15;36.03
75190;HTU21D;69198;44.694;37.790;2023-09-07T04:23:14;30.13;35.95
75190;HTU21D;69198;44.694;37.790;2023-09-07T04:24:15;30.13;35.82
75190;HTU21D;69198;44.694;37.790;2023-09-07T04:25:16;30.23;35.56
75190;HTU21D;69198;44.694;37.790;2023-09-07T04:26:17;30.23;35.71
75190;HTU21D;69198;44.694;37.790;2023-09-07T04:27:18;30.22;35.79
75190;HTU21D;69198;44.694;37.790;2023-09-07T04:28:19;30.21;35.82
75190;HTU21D;69198;44.694;37.790;2023-09-07T04:29:20;30.20;35.77
75190;HTU21D;69198;44.694;37.790;2023-09-07T04:30:21;30.17;35.74
75190;HTU21D;69198;44.694;37.790;2023-09-07T04:31:22;30.18;35.73
75190;HTU21D;69198;44.694;37.790;2023-09-07T04:32:28;30.18;35.73
75190;HTU21D;69198;44.694;37.790;2023-09-07T04:33:33;30.22;35.63
75190;HTU21D;69198;44.694;37.790;2023-09-07T04:34:34;30.25;35.60
75190;HTU21D;69198;44.694;37.790;2023-09-07T04:35:35;30.27;35.57
75190;HTU21D;69198;44.694;37.790;2023-09-07T04:36:36;30.33;35.47
75190;HTU21D;69198;44.694;37.790;2023-09-07T04:37:37;30.28;35.43
75190;HTU21D;69198;44.694;37.790;2023-09-07T04:38:38;30.20;35.53
75190;HTU21D;69198;44.694;37.790;2023-09-07T04:39:39;30.10;35.62
75190;HTU21D;69198;44.694;37.790;2023-09-07T04:40:41;30.19;35.53
75190;HTU21D;69198;44.694;37.790;2023-09-07T04:41:42;30.32;35.38
75190;HTU21D;69198;44.694;37.790;2023-09-07T04:42:43;30.46;35.14
75190;HTU21D;69198;44.694;37.790;2023-09-07T04:43:44;30.55;34.96
75190;HTU21D;69198;44.694;37.790;2023-09-07T04:44:46;30.53;34.99
75190;HTU21D;69198;44.694;37.790;2023-09-07T04:45:48;30.49;35.10
75190;HTU21D;69198;44.694;37.790;2023-09-07T04:46:49;30.48;35.15
75190;HTU21D;69198;44.694;37.790;2023-09-07T04:47:50;30.42;35.32
75190;HTU21D;69198;44.694;37.790;2023-09-07T04:48:51;30.45;35.34
75190;HTU21D;69198;44.694;37.790;2023-09-07T04:49:52;30.48;35.30
75190;HTU21D;69198;44.694;37.790;2023-09-07T04:51:00;30.64;35.02
75190;HTU21D;69198;44.694;37.790;2023-09-07T04:52:01;30.71;34.76
75190;HTU21D;69198;44.694;37.790;2023-09-07T04:53:02;30.76;34.56
75190;HTU21D;69198;44.694;37.790;2023-09-07T04:54:03;30.83;34.53
75190;HTU21D;69198;44.694;37.790;2023-09-07T04:55:05;31.07;34.26
75190;HTU21D;69198;44.694;37.790;2023-09-07T04:56:26;31.18;33.86
75190;HTU21D;69198;44.694;37.790;2023-09-07T04:57:30;31.19;33.89
75190;HTU21D;69198;44.694;37.790;2023-09-07T04:58:32;31.28;33.76
75190;HTU21D;69198;44.694;37.790;2023-09-07T04:59:33;31.41;33.55
75190;HTU21D;69198;44.694;37.790;2023-09-07T05:00:34;31.46;33.38
75190;HTU21D;69198;44.694;37.790;2023-09-07T05:01:35;31.49;33.38
75190;HTU21D;69198;44.694;37.790;2023-09-07T05:02:36;31.46;33.16
75190;HTU21D;69198;44.694;37.790;2023-09-07T05:03:41;31.37;33.24
75190;HTU21D;69198;44.694;37.790;2023-09-07T05:04:44;31.27;33.37
75190;HTU21D;69198;44.694;37.790;2023-09-07T05:05:50;31.19;33.41
75190;HTU21D;69198;44.694;37.790;2023-09-07T05:06:52;31.10;33.59
75190;HTU21D;69198;44.694;37.790;2023-09-07T05:07:53;31.08;33.64
75190;HTU21D;69198;44.694;37.790;2023-09-07T05:08:54;31.06;33.70
75190;HTU21D;69198;44.694;37.790;2023-09-07T05:09:55;31.02;33.69
75190;HTU21D;69198;44.694;37.790;2023-09-07T05:10:58;30.99;33.77
75190;HTU21D;69198;44.694;37.790;2023-09-07T05:11:59;30.97;33.82
75190;HTU21D;69198;44.694;37.790;2023-09-07T05:13:00;31.05;33.71
75190;HTU21D;69198;44.694;37.790;2023-09-07T05:14:02;31.14;33.63
75190;HTU21D;69198;44.694;37.790;2023-09-07T05:15:05;31.23;33.44
75190;HTU21D;69198;44.694;37.790;2023-09-07T05:16:07;31.25;33.35
75190;HTU21D;69198;44.694;37.790;2023-09-07T05:17:10;31.29;33.28
75190;HTU21D;69198;44.694;37.790;2023-09-07T05:18:11;31.34;33.16
75190;HTU21D;69198;44.694;37.790;2023-09-07T05:19:12;31.45;33.08
75190;HTU21D;69198;44.694;37.790;2023-09-07T05:20:13;31.68;32.69
75190;HTU21D;69198;44.694;37.790;2023-09-07T05:21:14;31.89;32.32
75190;HTU21D;69198;44.694;37.790;2023-09-07T05:22:16;32.01;31.98
75190;HTU21D;69198;44.694;37.790;2023-09-07T05:23:19;32.14;31.80
75190;HTU21D;69198;44.694;37.790;2023-09-07T05:24:21;32.24;31.66
75190;HTU21D;69198;44.694;37.790;2023-09-07T05:25:22;32.33;31.47
75190;HTU21D;69198;44.694;37.790;2023-09-07T05:26:23;32.46;31.28
75190;HTU21D;69198;44.694;37.790;2023-09-07T05:27:25;32.64;31.06
75190;HTU21D;69198;44.694;37.790;2023-09-07T05:28:26;32.71;30.81
75190;HTU21D;69198;44.694;37.790;2023-09-07T05:29:30;32.72;30.82
75190;HTU21D;69198;44.694;37.790;2023-09-07T05:30:31;32.68;30.75
75190;HTU21D;69198;44.694;37.790;2023-09-07T05:31:32;32.62;30.77
75190;HTU21D;69198;44.694;37.790;2023-09-07T05:32:33;32.66;30.83
75190;HTU21D;69198;44.694;37.790;2023-09-07T05:33:34;32.78;30.79
75190;HTU21D;69198;44.694;37.790;2023-09-07T05:34:36;32.84;30.48
75190;HTU21D;69198;44.694;37.790;2023-09-07T05:35:37;32.89;30.30
75190;HTU21D;69198;44.694;37.790;2023-09-07T05:36:38;32.92;30.15
75190;HTU21D;69198;44.694;37.790;2023-09-07T05:37:39;32.99;30.01
75190;HTU21D;69198;44.694;37.790;2023-09-07T05:38:40;32.92;30.08
75190;HTU21D;69198;44.694;37.790;2023-09-07T05:39:41;32.89;30.18
75190;HTU21D;69198;44.694;37.790;2023-09-07T05:40:44;32.92;30.16
75190;HTU21D;69198;44.694;37.790;2023-09-07T05:41:45;33.02;29.99
75190;HTU21D;69198;44.694;37.790;2023-09-07T05:42:46;33.06;29.82
75190;HTU21D;69198;44.694;37.790;2023-09-07T05:43:47;33.16;29.76
75190;HTU21D;69198;44.694;37.790;2023-09-07T05:44:49;33.28;29.63
75190;HTU21D;69198;44.694;37.790;2023-09-07T05:45:50;33.43;29.44
75190;HTU21D;69198;44.694;37.790;2023-09-07T05:46:51;33.50;29.29
75190;HTU21D;69198;44.694;37.790;2023-09-07T05:47:52;33.55;29.10
75190;HTU21D;69198;44.694;37.790;2023-09-07T05:48:54;33.62;29.03
75190;HTU21D;69198;44.694;37.790;2023-09-07T05:49:55;33.71;28.88
75190;HTU21D;69198;44.694;37.790;2023-09-07T05:50:56;33.68;28.71
75190;HTU21D;69198;44.694;37.790;2023-09-07T05:51:57;33.62;28.77
75190;HTU21D;69198;44.694;37.790;2023-09-07T05:52:59;33.64;28.84
75190;HTU21D;69198;44.694;37.790;2023-09-07T05:54:01;33.68;28.84
75190;HTU21D;69198;44.694;37.790;2023-09-07T05:55:02;33.74;28.71
75190;HTU21D;69198;44.694;37.790;2023-09-07T05:56:03;33.76;28.52
75190;HTU21D;69198;44.694;37.790;2023-09-07T05:57:04;33.78;28.52
75190;HTU21D;69198;44.694;37.790;2023-09-07T05:58:07;33.81;28.41
75190;HTU21D;69198;44.694;37.790;2023-09-07T05:59:10;33.87;28.35
75190;HTU21D;69198;44.694;37.790;2023-09-07T06:00:12;33.92;28.26
75190;HTU21D;69198;44.694;37.790;2023-09-07T06:01:17;33.95;28.34
75190;HTU21D;69198;44.694;37.790;2023-09-07T06:02:18;34.00;28.31
75190;HTU21D;69198;44.694;37.790;2023-09-07T06:03:19;34.02;28.37
75190;HTU21D;69198;44.694;37.790;2023-09-07T06:04:20;34.01;28.31
75190;HTU21D;69198;44.694;37.790;2023-09-07T06:05:22;34.11;28.27
75190;HTU21D;69198;44.694;37.790;2023-09-07T06:06:23;34.20;28.08
75190;HTU21D;69198;44.694;37.790;2023-09-07T06:07:24;34.35;27.87
75190;HTU21D;69198;44.694;37.790;2023-09-07T06:08:25;34.52;27.77
75190;HTU21D;69198;44.694;37.790;2023-09-07T06:09:27;34.66;27.91
75190;HTU21D;69198;44.694;37.790;2023-09-07T06:10:30;34.76;27.76
75190;HTU21D;69198;44.694;37.790;2023-09-07T06:11:32;34.82;27.51
75190;HTU21D;69198;44.694;37.790;2023-09-07T06:12:34;34.91;27.57
75190;HTU21D;69198;44.694;37.790;2023-09-07T06:13:36;34.91;27.29
75190;HTU21D;69198;44.694;37.790;2023-09-07T06:14:37;34.82;27.15
75190;HTU21D;69198;44.694;37.790;2023-09-07T06:15:38;34.68;27.49
75190;HTU21D;69198;44.694;37.790;2023-09-07T06:16:39;34.54;27.67
75190;HTU21D;69198;44.694;37.790;2023-09-07T06:17:40;34.22;27.82
75190;HTU21D;69198;44.694;37.790;2023-09-07T06:18:41;33.89;27.87